地図

経路データ

SID SEASON NUMBER BASIN SUBBASIN NAME ISO_TIME NATURE LAT LON WMO_WIND WMO_PRES WMO_AGENCY TRACK_TYPE DIST2LAND LANDFALL IFLAG USA_AGENCY USA_ATCF_ID USA_LAT USA_LON USA_RECORD USA_STATUS USA_WIND USA_PRES USA_SSHS USA_R34_NE USA_R34_SE USA_R34_SW USA_R34_NW USA_R50_NE USA_R50_SE USA_R50_SW USA_R50_NW USA_R64_NE USA_R64_SE USA_R64_SW USA_R64_NW USA_POCI USA_ROCI USA_RMW USA_EYE TOKYO_LAT TOKYO_LON TOKYO_GRADE TOKYO_WIND TOKYO_PRES TOKYO_R50_DIR TOKYO_R50_LONG TOKYO_R50_SHORT TOKYO_R30_DIR TOKYO_R30_LONG TOKYO_R30_SHORT TOKYO_LAND CMA_LAT CMA_LON CMA_CAT CMA_WIND CMA_PRES HKO_LAT HKO_LON HKO_CAT HKO_WIND HKO_PRES NEWDELHI_LAT NEWDELHI_LON NEWDELHI_GRADE NEWDELHI_WIND NEWDELHI_PRES NEWDELHI_CI NEWDELHI_DP NEWDELHI_POCI REUNION_LAT REUNION_LON REUNION_TYPE REUNION_WIND REUNION_PRES REUNION_TNUM REUNION_CI REUNION_RMW REUNION_R34_NE REUNION_R34_SE REUNION_R34_SW REUNION_R34_NW REUNION_R50_NE REUNION_R50_SE REUNION_R50_SW REUNION_R50_NW REUNION_R64_NE REUNION_R64_SE REUNION_R64_SW REUNION_R64_NW BOM_LAT BOM_LON BOM_TYPE BOM_WIND BOM_PRES BOM_TNUM BOM_CI BOM_RMW BOM_R34_NE BOM_R34_SE BOM_R34_SW BOM_R34_NW BOM_R50_NE BOM_R50_SE BOM_R50_SW BOM_R50_NW BOM_R64_NE BOM_R64_SE BOM_R64_SW BOM_R64_NW BOM_ROCI BOM_POCI BOM_EYE BOM_POS_METHOD BOM_PRES_METHOD NADI_LAT NADI_LON NADI_CAT NADI_WIND NADI_PRES WELLINGTON_LAT WELLINGTON_LON WELLINGTON_WIND WELLINGTON_PRES DS824_LAT DS824_LON DS824_STAGE DS824_WIND DS824_PRES TD9636_LAT TD9636_LON TD9636_STAGE TD9636_WIND TD9636_PRES TD9635_LAT TD9635_LON TD9635_WIND TD9635_PRES TD9635_ROCI NEUMANN_LAT NEUMANN_LON NEUMANN_CLASS NEUMANN_WIND NEUMANN_PRES MLC_LAT MLC_LON MLC_CLASS MLC_WIND MLC_PRES USA_GUST BOM_GUST BOM_GUST_PER REUNION_GUST REUNION_GUST_PER USA_SEAHGT USA_SEARAD_NE USA_SEARAD_SE USA_SEARAD_SW USA_SEARAD_NW STORM_SPEED STORM_DIR
1995186N32288 1995 29 NA NA BARRY 1995-07-05 06:00:00 TS 32.0000 -72.0000 20 1019 hurdat_atl main 512 512 O_____________ hurdat_atl AL021995 32.0000 -72.0000 TD 20 1019 -1 0 0
1995186N32288 1995 29 NA NA BARRY 1995-07-05 09:00:00 TS 32.0100 -72.0000 main 512 512 P_____________ AL021995 32.0100 -72.0000 TD 20 1019 -1 0 0
1995186N32288 1995 29 NA NA BARRY 1995-07-05 12:00:00 TS 32.0000 -72.0000 20 1019 hurdat_atl main 512 512 O_____________ hurdat_atl AL021995 32.0000 -72.0000 TD 20 1019 -1 1 160
1995186N32288 1995 29 NA NA BARRY 1995-07-05 15:00:00 TS 31.9575 -72.0000 main 512 512 P_____________ AL021995 31.9575 -72.0000 TD 20 1018 -1 1 0
1995186N32288 1995 29 NA NA BARRY 1995-07-05 18:00:00 TS 31.9000 -72.0000 20 1018 hurdat_atl main 520 520 O_____________ hurdat_atl AL021995 31.9000 -72.0000 TD 20 1018 -1 1 0
1995186N32288 1995 29 NA NA BARRY 1995-07-05 21:00:00 TS 31.8500 -72.0075 main 520 527 P_____________ AL021995 31.8500 -72.0075 TD 22 1017 -1 1 0
1995186N32288 1995 29 NA NA BARRY 1995-07-06 00:00:00 TS 31.8000 -72.0000 25 1017 hurdat_atl main 527 527 O_____________ hurdat_atl AL021995 31.8000 -72.0000 TD 25 1017 -1 1 163
1995186N32288 1995 29 NA NA BARRY 1995-07-06 03:00:00 TS 31.7575 -71.9650 main 527 527 P_____________ AL021995 31.7575 -71.9650 TD 25 1016 -1 1 140
1995186N32288 1995 29 NA NA BARRY 1995-07-06 06:00:00 TS 31.7000 -71.9000 25 1016 hurdat_atl main 541 541 O_____________ hurdat_atl AL021995 31.7000 -71.9000 TD 25 1016 -1 2 137
1995186N32288 1995 29 NA NA BARRY 1995-07-06 09:00:00 TS 31.6075 -71.8000 main 556 556 P_____________ AL021995 31.6075 -71.8000 TD 27 1014 -1 3 139
1995186N32288 1995 29 NA NA BARRY 1995-07-06 12:00:00 TS 31.5000 -71.7000 30 1013 hurdat_atl main 571 571 O_____________ hurdat_atl AL021995 31.5000 -71.7000 TD 30 1013 -1 3 151
1995186N32288 1995 29 NA NA BARRY 1995-07-06 15:00:00 TS 31.3850 -71.6575 main 578 578 P_____________ AL021995 31.3850 -71.6575 TD 30 1012 -1 2 155
1995186N32288 1995 29 NA NA BARRY 1995-07-06 18:00:00 TS 31.3000 -71.6000 30 1011 hurdat_atl main 592 592 O_____________ hurdat_atl AL021995 31.3000 -71.6000 TD 30 1011 -1 2 127
1995186N32288 1995 29 NA NA BARRY 1995-07-06 21:00:00 TS 31.2625 -71.4649 main 600 600 P_____________ AL021995 31.2625 -71.4649 TD 30 1010 -1 3 90
1995186N32288 1995 29 NA NA BARRY 1995-07-07 00:00:00 TS 31.3000 -71.3000 30 1009 hurdat_atl main 614 613 O_____________ hurdat_atl AL021995 31.3000 -71.3000 TD 30 1009 -1 3 62
1995186N32288 1995 29 NA NA BARRY 1995-07-07 03:00:00 TS 31.4050 -71.1574 main 613 613 P_____________ AL021995 31.4050 -71.1574 TD 32 1008 -1 4 40
1995186N32288 1995 29 NA NA BARRY 1995-07-07 06:00:00 TS 31.6000 -71.0000 35 1007 hurdat_atl main 614 608 O_____________ hurdat_atl AL021995 31.6000 -71.0000 TS 35 1007 0 5 34
1995186N32288 1995 29 NA NA BARRY 1995-07-07 09:00:00 TS 31.8475 -70.8074 main 615 603 P_____________ AL021995 31.8475 -70.8074 TS 37 1005 0 7 30
1995186N32288 1995 29 NA NA BARRY 1995-07-07 12:00:00 TS 32.2000 -70.6000 40 1004 hurdat_atl main 603 581 O_____________ hurdat_atl AL021995 32.2000 -70.6000 TS 40 1004 0 9 21
1995186N32288 1995 29 NA NA BARRY 1995-07-07 15:00:00 TS 32.6931 -70.4203 main 581 562 P_____________ AL021995 32.6931 -70.4203 TS 50 1002 0 11 19
1995186N32288 1995 29 NA NA BARRY 1995-07-07 18:00:00 TS 33.2000 -70.2000 60 1001 hurdat_atl main 564 558 O_____________ hurdat_atl AL021995 33.2000 -70.2000 TS 60 1001 0 10 26
1995186N32288 1995 29 NA NA BARRY 1995-07-07 21:00:00 TS 33.6000 -69.9000 60 998 hurdat_atl main 566 561 O_____________ hurdat_atl AL021995 33.6000 -69.9000 W TS 60 998 0 9 32
1995186N32288 1995 29 NA NA BARRY 1995-07-08 00:00:00 TS 34.0000 -69.6000 60 997 hurdat_atl main 573 573 O_____________ hurdat_atl AL021995 34.0000 -69.6000 TS 60 997 0 10 32
1995186N32288 1995 29 NA NA BARRY 1995-07-08 03:00:00 TS 34.4329 -69.2600 main 583 583 P_____________ AL021995 34.4329 -69.2600 TS 57 997 0 11 33
1995186N32288 1995 29 NA NA BARRY 1995-07-08 06:00:00 TS 34.9000 -68.9000 55 997 hurdat_atl main 605 603 O_____________ hurdat_atl AL021995 34.9000 -68.9000 TS 55 997 0 11 31
1995186N32288 1995 29 NA NA BARRY 1995-07-08 09:00:00 TS 35.3697 -68.5713 main 623 623 P_____________ AL021995 35.3697 -68.5713 TS 52 997 0 12 30
1995186N32288 1995 29 NA NA BARRY 1995-07-08 12:00:00 TS 35.9000 -68.2000 50 997 hurdat_atl main 656 608 O_____________ hurdat_atl AL021995 35.9000 -68.2000 TS 50 997 0 13 31
1995186N32288 1995 29 NA NA BARRY 1995-07-08 15:00:00 TS 36.5124 -67.7368 main 611 555 P_____________ AL021995 36.5124 -67.7368 TS 50 997 0 15 32
1995186N32288 1995 29 NA NA BARRY 1995-07-08 18:00:00 TS 37.2000 -67.2000 50 997 hurdat_atl main 555 507 O_____________ hurdat_atl AL021995 37.2000 -67.2000 TS 50 997 0 17 32
1995186N32288 1995 29 NA NA BARRY 1995-07-08 21:00:00 TS 37.9122 -66.6284 main 512 475 P_____________ AL021995 37.9122 -66.6284 TS 50 996 0 18 32
1995186N32288 1995 29 NA NA BARRY 1995-07-09 00:00:00 TS 38.7000 -66.0000 50 996 hurdat_atl main 475 445 O_____________ hurdat_atl AL021995 38.7000 -66.0000 TS 50 996 0 20 31
1995186N32288 1995 29 NA NA BARRY 1995-07-09 03:00:00 TS 39.5772 -65.3215 main 433 348 P_____________ AL021995 39.5772 -65.3215 TS 50 995 0 21 31
1995186N32288 1995 29 NA NA BARRY 1995-07-09 06:00:00 TS 40.5000 -64.6000 50 995 hurdat_atl main 338 270 O_____________ hurdat_atl AL021995 40.5000 -64.6000 TS 50 995 0 21 32
1995186N32288 1995 29 NA NA BARRY 1995-07-09 09:00:00 TS 41.3848 -63.8480 main 263 220 P_____________ AL021995 41.3848 -63.8480 TS 50 994 0 21 32
1995186N32288 1995 29 NA NA BARRY 1995-07-09 12:00:00 TS 42.3000 -63.1000 50 993 hurdat_atl main 216 155 O_____________ hurdat_atl AL021995 42.3000 -63.1000 TS 50 993 0 22 29
1995186N32288 1995 29 NA NA BARRY 1995-07-09 15:00:00 TS 43.3133 -62.3734 main 155 79 P_____________ AL021995 43.3133 -62.3734 TS 50 992 0 22 27
1995186N32288 1995 29 NA NA BARRY 1995-07-09 18:00:00 TS 44.3000 -61.7000 50 991 hurdat_atl main 79 22 O_____________ hurdat_atl AL021995 44.3000 -61.7000 TS 50 991 0 19 26
1995186N32288 1995 29 NA NA BARRY 1995-07-09 21:00:00 TS 45.0527 -61.1650 main 11 0 P_____________ AL021995 45.0527 -61.1650 TS 50 990 0 19 26
1995186N32288 1995 29 NA NA BARRY 1995-07-09 21:30:00 TS 45.3000 -61.0000 50 990 hurdat_atl main 0 7 O_____________ hurdat_atl AL021995 45.3000 -61.0000 L TS 50 990 0 36 25
1995186N32288 1995 29 NA NA BARRY 1995-07-09 22:00:00 TS 45.6000 -60.8000 45 990 hurdat_atl main 7 0 O_____________ hurdat_atl AL021995 45.6000 -60.8000 L TS 45 990 0 28 18
1995186N32288 1995 29 NA NA BARRY 1995-07-10 00:00:00 TS 46.4000 -60.5000 45 990 hurdat_atl main 0 0 O_____________ hurdat_atl AL021995 46.4000 -60.5000 TS 45 990 0 23 17
1995186N32288 1995 29 NA NA BARRY 1995-07-10 03:00:00 TS 47.4251 -60.0078 main 56 18 P_____________ AL021995 47.4251 -60.0078 TS 42 989 0 23 23
1995186N32288 1995 29 NA NA BARRY 1995-07-10 06:00:00 TS 48.5000 -59.2000 40 989 hurdat_atl main 13 O_____________ hurdat_atl AL021995 48.5000 -59.2000 TS 40 989 0 24 26

IBTrACS Databaseについて

本データベースは、米国NOAAが公開する1842年以降の世界の熱帯低気圧のベストトラックデータアーカイブInternational Best Track Archive for Climate Stewardship (IBTrACS)を、ウェブで閲覧しやすい形式に変換したものです。

最終更新日:2021-12-03